Time;durP1;ratioP1;P1;durP2;ratioP2;P2;SDS_P1;SDS_P2;PMS_P1;PMS_P2;Temp;Humidity;BMP_temperature;BMP_pressure;BME280_temperature;BME280_humidity;BME280_pressure;Samples;Min_cycle;Max_cycle;Signal;HPM_P1;HPM_P2
2022/01/11 00:01:15;;;;;;;19.63;12.33;;;;;;;;;;5033051;28;20209;-81
2022/01/11 00:03:43;;;;;;;16.70;10.80;;;;;;;;;;5031653;28;20233;-81
2022/01/11 00:06:23;;;;;;;21.33;11.27;;;;;;;;;;5050764;28;20212;-80
2022/01/11 00:08:53;;;;;;;26.27;11.10;;;;;;;;;;5052367;28;20269;-80
2022/01/11 00:11:20;;;;;;;19.00;11.50;;;;;;;;;;5072553;28;20639;-80
2022/01/11 00:13:47;;;;;;;17.23;11.23;;;;;;;;;;5072253;28;20277;-80
2022/01/11 00:16:14;;;;;;;18.27;12.47;;;;;;;;;;5073867;28;20207;-80
2022/01/11 00:18:41;;;;;;;18.33;11.97;;;;;;;;;;5073102;28;20242;-80
2022/01/11 00:21:10;;;;;;;24.50;11.93;;;;;;;;;;5073961;28;20208;-80
2022/01/11 00:26:22;;;;;;;17.17;11.77;;;;;;;;;;5052733;28;20219;-80
2022/01/11 00:28:49;;;;;;;27.47;12.10;;;;;;;;;;5052575;28;20239;-80
2022/01/11 00:31:16;;;;;;;21.60;12.47;;;;;;;;;;5053462;28;20215;-80
2022/01/11 00:33:46;;;;;;;25.73;12.93;;;;;;;;;;5054656;28;20236;-80
2022/01/11 00:36:14;;;;;;;21.23;12.83;;;;;;;;;;5053668;28;20212;-80
2022/01/11 00:38:42;;;;;;;22.33;12.20;;;;;;;;;;5053262;28;20251;-80
2022/01/11 00:41:10;;;;;;;27.20;13.77;;;;;;;;;;5054395;28;20228;-80
2022/01/11 00:43:38;;;;;;;19.13;12.50;;;;;;;;;;5056701;28;20263;-80
2022/01/11 00:46:06;;;;;;;21.70;12.50;;;;;;;;;;5056698;28;20212;-80
2022/01/11 00:48:35;;;;;;;22.57;12.90;;;;;;;;;;5056011;28;20243;-80
2022/01/11 00:51:02;;;;;;;22.77;11.60;;;;;;;;;;5057804;28;20208;-80
2022/01/11 00:53:31;;;;;;;20.97;11.93;;;;;;;;;;5057692;28;20241;-80
2022/01/11 00:55:58;;;;;;;19.07;11.83;;;;;;;;;;5058052;28;20222;-80
2022/01/11 00:58:25;;;;;;;22.63;13.13;;;;;;;;;;5058133;28;20260;-80
2022/01/11 01:00:52;;;;;;;19.77;11.97;;;;;;;;;;5060226;28;20307;-80
2022/01/11 01:03:20;;;;;;;23.00;13.07;;;;;;;;;;5083187;28;20226;-80
2022/01/11 01:05:47;;;;;;;29.43;13.40;;;;;;;;;;5080557;28;20298;-80
2022/01/11 01:08:14;;;;;;;22.57;12.77;;;;;;;;;;5080290;28;20247;-80
2022/01/11 01:10:46;;;;;;;23.80;13.17;;;;;;;;;;5080535;28;20210;-81
2022/01/11 01:13:15;;;;;;;24.47;13.50;;;;;;;;;;5079169;28;20299;-80
2022/01/11 01:15:42;;;;;;;23.60;13.53;;;;;;;;;;5080101;28;20208;-80
2022/01/11 01:18:11;;;;;;;26.83;13.43;;;;;;;;;;5079790;28;20235;-80
2022/01/11 01:20:38;;;;;;;19.50;12.47;;;;;;;;;;5079808;28;20237;-80
2022/01/11 01:23:05;;;;;;;21.67;13.67;;;;;;;;;;5078993;28;20253;-80
2022/01/11 01:25:32;;;;;;;24.30;14.40;;;;;;;;;;5080157;28;20219;-80
2022/01/11 01:28:00;;;;;;;22.17;14.37;;;;;;;;;;5079010;28;20247;-80
2022/01/11 01:30:27;;;;;;;21.83;13.93;;;;;;;;;;5079759;28;20234;-80
2022/01/11 01:32:55;;;;;;;24.87;14.03;;;;;;;;;;5079125;28;20231;-80
2022/01/11 01:35:26;;;;;;;30.03;14.10;;;;;;;;;;5079716;28;20215;-80
2022/01/11 01:37:53;;;;;;;26.33;15.40;;;;;;;;;;5079199;28;20236;-80
2022/01/11 01:40:20;;;;;;;24.10;14.27;;;;;;;;;;5079918;28;20241;-80
2022/01/11 01:42:48;;;;;;;24.37;13.83;;;;;;;;;;5078434;28;20453;-80
2022/01/11 01:45:17;;;;;;;28.80;14.83;;;;;;;;;;5079729;28;20207;-80
2022/01/11 01:47:44;;;;;;;23.93;14.17;;;;;;;;;;5079009;28;20690;-80
2022/01/11 01:50:12;;;;;;;27.30;14.23;;;;;;;;;;5079341;28;20606;-80
2022/01/11 01:52:39;;;;;;;31.37;15.93;;;;;;;;;;5078947;28;20305;-80
2022/01/11 01:55:07;;;;;;;27.20;14.00;;;;;;;;;;5068001;28;20232;-80
2022/01/11 01:57:34;;;;;;;24.27;13.63;;;;;;;;;;5061020;28;20233;-80
2022/01/11 02:00:07;;;;;;;27.83;14.93;;;;;;;;;;5067390;28;20201;-80
2022/01/11 02:02:36;;;;;;;27.63;15.23;;;;;;;;;;5077094;28;20207;-80
2022/01/11 02:05:05;;;;;;;29.33;14.90;;;;;;;;;;5066676;28;20623;-80
2022/01/11 02:07:33;;;;;;;29.27;14.70;;;;;;;;;;5056650;28;20570;-80
2022/01/11 02:10:01;;;;;;;27.57;14.57;;;;;;;;;;5057954;28;20568;-80
2022/01/11 02:12:28;;;;;;;26.43;13.53;;;;;;;;;;5074033;28;20236;-80
2022/01/11 02:14:55;;;;;;;23.93;12.77;;;;;;;;;;5066721;28;20242;-80
2022/01/11 02:17:22;;;;;;;20.90;11.67;;;;;;;;;;5055717;28;20239;-80
2022/01/11 02:19:50;;;;;;;19.23;10.53;;;;;;;;;;5055131;28;20680;-80
2022/01/11 02:22:19;;;;;;;24.43;13.17;;;;;;;;;;5074887;28;20205;-80
2022/01/11 02:24:46;;;;;;;25.43;12.50;;;;;;;;;;5077739;28;20208;-80
2022/01/11 02:27:13;;;;;;;20.27;12.90;;;;;;;;;;5077842;28;20259;-80
2022/01/11 02:29:40;;;;;;;29.43;12.90;;;;;;;;;;5075515;28;20235;-80
2022/01/11 02:32:08;;;;;;;21.23;11.67;;;;;;;;;;5059476;28;20209;-80
2022/01/11 02:34:35;;;;;;;28.47;13.27;;;;;;;;;;5055430;28;20614;-80
2022/01/11 02:37:02;;;;;;;25.93;13.90;;;;;;;;;;5056842;28;20216;-80
2022/01/11 02:39:30;;;;;;;26.97;12.13;;;;;;;;;;5065801;28;20224;-80
2022/01/11 02:42:00;;;;;;;21.27;12.17;;;;;;;;;;5074899;28;20227;-80
2022/01/11 02:44:27;;;;;;;20.70;13.13;;;;;;;;;;5075765;28;20248;-80
2022/01/11 02:46:54;;;;;;;22.67;12.50;;;;;;;;;;5063232;28;20223;-80
2022/01/11 02:49:21;;;;;;;22.20;13.20;;;;;;;;;;5064223;28;20237;-80
2022/01/11 02:51:49;;;;;;;22.33;12.97;;;;;;;;;;5057891;28;20677;-80
2022/01/11 02:54:16;;;;;;;25.70;15.27;;;;;;;;;;5057411;28;20236;-80
2022/01/11 02:56:44;;;;;;;33.13;14.43;;;;;;;;;;5057951;28;20216;-80
2022/01/11 02:59:12;;;;;;;25.20;14.73;;;;;;;;;;5061587;28;20767;-80
2022/01/11 03:01:39;;;;;;;25.30;14.37;;;;;;;;;;5078004;28;20231;-80
2022/01/11 03:04:06;;;;;;;23.63;14.00;;;;;;;;;;5078262;28;20259;-80
2022/01/11 03:06:33;;;;;;;27.37;13.27;;;;;;;;;;5077754;28;20208;-80
2022/01/11 03:09:00;;;;;;;21.43;12.70;;;;;;;;;;5077209;28;20241;-80
2022/01/11 03:11:32;;;;;;;33.07;14.83;;;;;;;;;;5077631;28;20301;-80
2022/01/11 03:14:00;;;;;;;23.83;13.67;;;;;;;;;;5080976;28;20330;-80
2022/01/11 03:16:27;;;;;;;27.93;14.30;;;;;;;;;;5065307;28;20235;-80
2022/01/11 03:18:54;;;;;;;24.63;14.17;;;;;;;;;;5057383;28;20268;-80
2022/01/11 03:21:21;;;;;;;29.33;14.47;;;;;;;;;;5057802;28;20213;-80
2022/01/11 03:23:49;;;;;;;28.13;14.37;;;;;;;;;;5057289;28;20609;-80
2022/01/11 03:26:16;;;;;;;26.13;15.77;;;;;;;;;;5057407;28;20209;-80
2022/01/11 03:28:43;;;;;;;29.17;14.87;;;;;;;;;;5061394;28;20236;-80
2022/01/11 03:31:11;;;;;;;28.63;14.27;;;;;;;;;;5077437;28;20211;-80
2022/01/11 03:33:38;;;;;;;22.70;13.43;;;;;;;;;;5077204;28;20231;-80
2022/01/11 03:36:06;;;;;;;26.23;15.03;;;;;;;;;;5078141;28;20212;-80
2022/01/11 03:38:34;;;;;;;32.23;14.80;;;;;;;;;;5077253;28;20235;-80
2022/01/11 03:41:01;;;;;;;24.80;15.50;;;;;;;;;;5078190;28;20223;-80
2022/01/11 03:43:29;;;;;;;33.27;14.57;;;;;;;;;;5068246;28;20232;-80
2022/01/11 03:45:57;;;;;;;28.87;15.83;;;;;;;;;;5056772;28;20237;-80
2022/01/11 03:48:25;;;;;;;26.77;14.30;;;;;;;;;;5057398;28;20232;-80
2022/01/11 03:50:54;;;;;;;32.03;15.37;;;;;;;;;;5057738;28;20208;-80
2022/01/11 03:53:25;;;;;;;26.00;15.27;;;;;;;;;;5056940;28;20301;-80
2022/01/11 03:56:11;;;;;;;27.67;13.87;;;;;;;;;;5057511;28;20685;-80
2022/01/11 03:58:38;;;;;;;27.70;14.97;;;;;;;;;;5037233;28;20245;-80
2022/01/11 04:01:05;;;;;;;25.13;14.03;;;;;;;;;;5037172;28;20308;-80
2022/01/11 04:03:33;;;;;;;22.73;14.00;;;;;;;;;;5056165;28;20253;-80
2022/01/11 04:06:00;;;;;;;24.30;14.00;;;;;;;;;;5057188;28;20221;-80
2022/01/11 04:08:27;;;;;;;26.23;14.23;;;;;;;;;;5056858;28;20247;-80
2022/01/11 04:10:55;;;;;;;29.00;14.60;;;;;;;;;;5057324;28;20236;-80
2022/01/11 04:13:23;;;;;;;24.83;13.77;;;;;;;;;;5059063;28;20235;-80
2022/01/11 04:15:50;;;;;;;27.40;13.50;;;;;;;;;;5077049;28;20213;-80
2022/01/11 04:18:17;;;;;;;25.67;13.80;;;;;;;;;;5078198;28;20239;-80
2022/01/11 04:20:46;;;;;;;26.33;13.97;;;;;;;;;;5080905;28;20203;-80
2022/01/11 04:23:13;;;;;;;26.63;14.20;;;;;;;;;;5080619;28;20232;-80
2022/01/11 04:25:41;;;;;;;30.07;14.47;;;;;;;;;;5078823;28;20212;-80
2022/01/11 04:28:08;;;;;;;25.20;14.40;;;;;;;;;;5060347;28;20581;-80
2022/01/11 04:30:36;;;;;;;27.33;14.33;;;;;;;;;;5060935;28;20233;-81
2022/01/11 04:33:04;;;;;;;30.27;15.00;;;;;;;;;;5060299;28;20282;-81
2022/01/11 04:35:31;;;;;;;30.33;16.23;;;;;;;;;;5059222;28;20728;-80
2022/01/11 04:38:00;;;;;;;29.67;14.90;;;;;;;;;;5059313;28;20723;-80
2022/01/11 04:40:27;;;;;;;31.07;15.90;;;;;;;;;;5059658;28;20666;-81
2022/01/11 04:42:54;;;;;;;27.40;16.50;;;;;;;;;;5059201;28;20241;-80
2022/01/11 04:45:21;;;;;;;26.77;15.60;;;;;;;;;;5059145;28;20216;-80
2022/01/11 04:47:56;;;;;;;25.67;14.10;;;;;;;;;;5056288;28;20604;-80
2022/01/11 04:50:23;;;;;;;33.07;14.20;;;;;;;;;;5055511;28;20212;-80
2022/01/11 04:52:50;;;;;;;22.57;14.70;;;;;;;;;;5054571;28;20237;-80
2022/01/11 04:55:19;;;;;;;25.43;13.53;;;;;;;;;;5055223;28;20202;-80
2022/01/11 04:57:46;;;;;;;28.50;12.33;;;;;;;;;;5039810;28;20273;-80
2022/01/11 05:00:14;;;;;;;30.60;14.23;;;;;;;;;;5071563;28;20204;-81
2022/01/11 05:02:42;;;;;;;32.03;14.63;;;;;;;;;;5054459;28;20263;-81
2022/01/11 05:05:09;;;;;;;27.30;14.00;;;;;;;;;;5055159;28;20220;-81
2022/01/11 05:07:36;;;;;;;27.13;13.80;;;;;;;;;;5054605;28;20263;-81
2022/01/11 05:10:04;;;;;;;37.53;14.53;;;;;;;;;;5058229;28;20231;-80
2022/01/11 05:12:34;;;;;;;29.50;14.70;;;;;;;;;;5054530;28;20291;-80
2022/01/11 05:15:01;;;;;;;32.53;15.40;;;;;;;;;;5055035;28;20210;-80
2022/01/11 05:17:28;;;;;;;34.73;14.57;;;;;;;;;;5054785;28;20229;-80
2022/01/11 05:19:55;;;;;;;33.33;15.20;;;;;;;;;;5055265;28;20209;-81
2022/01/11 05:22:22;;;;;;;32.23;16.17;;;;;;;;;;5054901;28;20213;-80
2022/01/11 05:24:49;;;;;;;32.20;14.00;;;;;;;;;;5055247;28;20212;-80
2022/01/11 05:27:16;;;;;;;29.50;15.77;;;;;;;;;;5055575;28;20231;-80
2022/01/11 05:29:44;;;;;;;29.40;15.10;;;;;;;;;;5054325;28;20233;-80
2022/01/11 05:32:11;;;;;;;31.07;15.73;;;;;;;;;;5054108;28;20216;-80
2022/01/11 05:34:39;;;;;;;29.63;15.63;;;;;;;;;;5075009;28;20258;-80
2022/01/11 05:37:06;;;;;;;28.07;15.40;;;;;;;;;;5075265;28;20233;-80
2022/01/11 05:39:33;;;;;;;28.23;15.57;;;;;;;;;;5068190;28;20713;-80
2022/01/11 05:42:00;;;;;;;27.87;15.67;;;;;;;;;;5054886;28;20260;-80
2022/01/11 05:44:27;;;;;;;27.63;16.27;;;;;;;;;;5053856;28;20591;-80
2022/01/11 05:46:56;;;;;;;30.53;15.40;;;;;;;;;;5055723;28;20204;-80
2022/01/11 05:49:23;;;;;;;33.23;16.20;;;;;;;;;;5077342;22;20228;-79
2022/01/11 05:51:50;;;;;;;36.20;17.83;;;;;;;;;;5071568;28;20212;-79
2022/01/11 05:54:17;;;;;;;41.00;17.97;;;;;;;;;;5063118;28;20734;-79
2022/01/11 05:56:44;;;;;;;35.00;17.57;;;;;;;;;;5058051;28;20213;-79
2022/01/11 05:59:11;;;;;;;35.40;16.97;;;;;;;;;;5054138;28;20233;-79
2022/01/11 06:01:38;;;;;;;32.73;17.03;;;;;;;;;;5054629;28;20210;-79
2022/01/11 06:04:06;;;;;;;36.07;17.23;;;;;;;;;;5053884;28;20347;-79
2022/01/11 06:06:33;;;;;;;32.23;17.07;;;;;;;;;;5055593;28;20665;-79
2022/01/11 06:09:02;;;;;;;39.03;17.33;;;;;;;;;;5054843;28;20244;-80
2022/01/11 06:11:30;;;;;;;36.30;17.50;;;;;;;;;;5058998;28;20216;-84
2022/01/11 06:13:57;;;;;;;43.10;17.73;;;;;;;;;;5060331;28;20241;-81
2022/01/11 06:16:24;;;;;;;36.67;17.37;;;;;;;;;;5078744;28;20577;-80
2022/01/11 06:18:51;;;;;;;35.07;17.50;;;;;;;;;;5079254;28;20328;-80
2022/01/11 06:21:21;;;;;;;46.93;18.63;;;;;;;;;;5078317;28;20212;-82
2022/01/11 06:23:49;;;;;;;50.47;19.13;;;;;;;;;;5074824;28;20236;-82
2022/01/11 06:26:16;;;;;;;48.90;19.03;;;;;;;;;;5075636;28;20216;-82
2022/01/11 06:28:43;;;;;;;45.93;18.17;;;;;;;;;;5059758;28;20638;-83
2022/01/11 06:31:11;;;;;;;53.80;19.80;;;;;;;;;;5054961;28;20233;-83
2022/01/11 06:33:38;;;;;;;56.03;17.27;;;;;;;;;;5054324;28;20222;-83
2022/01/11 06:36:09;;;;;;;46.73;19.07;;;;;;;;;;5055124;28;20217;-83
2022/01/11 06:38:38;;;;;;;57.37;19.83;;;;;;;;;;5065047;28;20297;-83
2022/01/11 06:41:05;;;;;;;47.37;18.00;;;;;;;;;;5085765;28;20243;-82
2022/01/11 06:43:32;;;;;;;62.83;20.33;;;;;;;;;;5073524;28;20245;-83
2022/01/11 06:45:59;;;;;;;50.77;21.00;;;;;;;;;;5066119;28;20199;-83
2022/01/11 06:48:26;;;;;;;66.77;19.90;;;;;;;;;;5058757;28;20255;-83
2022/01/11 06:50:53;;;;;;;57.13;20.33;;;;;;;;;;5058328;28;20237;-82
2022/01/11 06:53:20;;;;;;;81.67;21.57;;;;;;;;;;5074193;28;20236;-82
2022/01/11 06:55:49;;;;;;;59.77;19.77;;;;;;;;;;5064389;28;20283;-83
2022/01/11 06:58:17;;;;;;;64.30;20.73;;;;;;;;;;5061922;28;20293;-81
2022/01/11 07:00:44;;;;;;;83.57;21.33;;;;;;;;;;5060097;28;20547;-82
2022/01/11 07:03:11;;;;;;;74.23;20.47;;;;;;;;;;5056255;28;20241;-82
2022/01/11 07:05:39;;;;;;;54.47;19.40;;;;;;;;;;5055835;28;20209;-82
2022/01/11 07:08:06;;;;;;;57.67;19.33;;;;;;;;;;5055850;28;20576;-82
2022/01/11 07:10:33;;;;;;;51.47;18.77;;;;;;;;;;5057657;28;20233;-82
2022/01/11 07:13:02;;;;;;;46.43;17.53;;;;;;;;;;5052290;28;20232;-82
2022/01/11 07:15:30;;;;;;;55.30;19.17;;;;;;;;;;5063877;28;20265;-83
2022/01/11 07:17:57;;;;;;;41.83;17.90;;;;;;;;;;5036752;28;20701;-83
2022/01/11 07:20:24;;;;;;;65.87;19.03;;;;;;;;;;5044765;28;20190;-83
2022/01/11 07:22:51;;;;;;;46.90;18.33;;;;;;;;;;5056384;28;20240;-82
2022/01/11 07:25:18;;;;;;;38.53;17.80;;;;;;;;;;5056702;28;20605;-82
2022/01/11 07:27:45;;;;;;;51.83;17.73;;;;;;;;;;5055300;28;20718;-83
2022/01/11 07:30:14;;;;;;;43.97;17.03;;;;;;;;;;5055178;28;20229;-83
2022/01/11 07:32:41;;;;;;;48.33;17.63;;;;;;;;;;5054309;28;20231;-83
2022/01/11 07:35:08;;;;;;;53.17;18.40;;;;;;;;;;5056117;28;20232;-82
2022/01/11 07:37:35;;;;;;;38.60;17.77;;;;;;;;;;5050161;28;20598;-83
2022/01/11 07:40:02;;;;;;;53.47;18.83;;;;;;;;;;5054819;28;20209;-82
2022/01/11 07:42:30;;;;;;;44.97;18.97;;;;;;;;;;5055171;28;20202;-82
2022/01/11 07:44:57;;;;;;;51.13;19.27;;;;;;;;;;5055205;28;20210;-82
2022/01/11 07:47:25;;;;;;;55.87;19.97;;;;;;;;;;5072059;28;20209;-83
2022/01/11 07:49:52;;;;;;;54.23;21.13;;;;;;;;;;5074979;28;20232;-82
2022/01/11 07:52:19;;;;;;;52.10;20.57;;;;;;;;;;5074802;28;20232;-82
2022/01/11 07:54:46;;;;;;;44.23;18.00;;;;;;;;;;5075828;28;20208;-82
2022/01/11 07:57:13;;;;;;;48.50;20.33;;;;;;;;;;5073700;28;20205;-82
2022/01/11 07:59:40;;;;;;;45.10;19.93;;;;;;;;;;5074645;28;20212;-82
2022/01/11 08:02:07;;;;;;;50.27;18.40;;;;;;;;;;5074844;28;20213;-82
2022/01/11 08:04:36;;;;;;;46.10;18.47;;;;;;;;;;5074307;28;20240;-82
2022/01/11 08:07:03;;;;;;;48.17;18.87;;;;;;;;;;5075874;28;20212;-82
2022/01/11 08:09:30;;;;;;;42.57;18.80;;;;;;;;;;5074782;28;20701;-82
2022/01/11 08:11:58;;;;;;;46.13;17.97;;;;;;;;;;5075480;28;20589;-81
2022/01/11 08:14:26;;;;;;;45.63;18.13;;;;;;;;;;5074957;28;20237;-82
2022/01/11 08:16:53;;;;;;;38.00;18.07;;;;;;;;;;5081827;28;20243;-82
2022/01/11 08:19:24;;;;;;;37.67;18.03;;;;;;;;;;5063180;28;20230;-81
2022/01/11 08:21:53;;;;;;;37.43;17.90;;;;;;;;;;5062938;28;20201;-80
2022/01/11 08:24:21;;;;;;;44.10;18.50;;;;;;;;;;5063176;28;20737;-82
2022/01/11 08:26:48;;;;;;;44.53;19.87;;;;;;;;;;5065777;28;20191;-81
2022/01/11 08:29:18;;;;;;;40.60;17.87;;;;;;;;;;5063972;28;20224;-82
2022/01/11 08:31:45;;;;;;;36.50;18.07;;;;;;;;;;5060792;28;20283;-83
2022/01/11 08:34:14;;;;;;;38.03;17.93;;;;;;;;;;5059323;28;20320;-82
2022/01/11 08:36:41;;;;;;;35.47;17.93;;;;;;;;;;5061065;28;20270;-84
2022/01/11 08:39:11;;;;;;;33.10;17.70;;;;;;;;;;5059774;28;20721;-83
2022/01/11 08:41:38;;;;;;;42.00;18.57;;;;;;;;;;5054776;28;20728;-85
2022/01/11 08:44:06;;;;;;;41.90;18.80;;;;;;;;;;5050798;28;20229;-84
2022/01/11 08:46:33;;;;;;;41.20;19.47;;;;;;;;;;5051775;28;20210;-85
2022/01/11 08:49:01;;;;;;;36.83;17.73;;;;;;;;;;5047823;28;20240;-85
2022/01/11 08:51:28;;;;;;;36.23;18.77;;;;;;;;;;5051738;28;20317;-84
2022/01/11 08:53:55;;;;;;;34.30;17.87;;;;;;;;;;5053856;28;20859;-84
2022/01/11 08:56:25;;;;;;;51.73;20.67;;;;;;;;;;5054712;28;20206;-84
2022/01/11 08:58:52;;;;;;;36.17;19.30;;;;;;;;;;5054668;28;20248;-84
2022/01/11 09:01:20;;;;;;;40.93;18.97;;;;;;;;;;5053998;28;20634;-84
2022/01/11 09:03:47;;;;;;;38.67;18.97;;;;;;;;;;5058417;28;20232;-84
2022/01/11 09:06:14;;;;;;;39.17;18.97;;;;;;;;;;5060966;28;20199;-84
2022/01/11 09:08:41;;;;;;;45.10;19.53;;;;;;;;;;5056272;28;20230;-85
2022/01/11 09:11:08;;;;;;;42.43;19.80;;;;;;;;;;5055885;28;20268;-84
2022/01/11 09:13:37;;;;;;;40.63;19.43;;;;;;;;;;5055215;28;20237;-86
2022/01/11 09:16:04;;;;;;;38.27;18.97;;;;;;;;;;5055587;28;20233;-84
2022/01/11 09:18:31;;;;;;;31.47;17.73;;;;;;;;;;5058414;28;20238;-83
2022/01/11 09:21:00;;;;;;;38.67;19.00;;;;;;;;;;5057336;28;20216;-83
2022/01/11 09:23:27;;;;;;;41.57;19.43;;;;;;;;;;5056250;28;20249;-84
2022/01/11 09:25:54;;;;;;;37.33;20.20;;;;;;;;;;5078649;28;20905;-83
2022/01/11 09:28:22;;;;;;;35.97;19.03;;;;;;;;;;5076303;28;20719;-83
2022/01/11 09:30:51;;;;;;;35.30;19.83;;;;;;;;;;5071548;28;20230;-84
2022/01/11 09:33:18;;;;;;;44.10;20.07;;;;;;;;;;5057323;28;20238;-83
2022/01/11 09:35:45;;;;;;;31.17;17.90;;;;;;;;;;5056319;28;20202;-84
2022/01/11 09:38:12;;;;;;;38.27;18.67;;;;;;;;;;5056205;28;20245;-84
2022/01/11 09:40:39;;;;;;;36.47;19.37;;;;;;;;;;5056420;28;20213;-84
2022/01/11 09:43:06;;;;;;;40.53;20.10;;;;;;;;;;5072219;28;20623;-84
2022/01/11 09:45:33;;;;;;;30.17;17.93;;;;;;;;;;5063214;28;20220;-83
2022/01/11 09:48:02;;;;;;;32.07;18.53;;;;;;;;;;5065871;28;20755;-84
2022/01/11 09:50:29;;;;;;;38.30;19.37;;;;;;;;;;5057295;28;20740;-83
2022/01/11 09:52:56;;;;;;;34.57;18.40;;;;;;;;;;5054879;28;20238;-84
2022/01/11 09:55:23;;;;;;;35.17;18.57;;;;;;;;;;5055830;28;20210;-83
2022/01/11 09:57:51;;;;;;;31.83;17.83;;;;;;;;;;5055057;28;20234;-83
2022/01/11 10:00:18;;;;;;;38.83;19.73;;;;;;;;;;5055505;28;20191;-83
2022/01/11 10:02:46;;;;;;;33.07;19.03;;;;;;;;;;5056294;28;20240;-84
2022/01/11 10:05:15;;;;;;;34.27;19.73;;;;;;;;;;5057342;28;20301;-83
2022/01/11 10:07:43;;;;;;;31.50;19.37;;;;;;;;;;5056864;28;20240;-84
2022/01/11 10:10:14;;;;;;;44.03;19.40;;;;;;;;;;5057158;28;20206;-84
2022/01/11 10:12:43;;;;;;;38.60;18.90;;;;;;;;;;5054226;28;20717;-84
2022/01/11 10:15:11;;;;;;;38.77;19.87;;;;;;;;;;5053971;28;20210;-84
2022/01/11 10:17:40;;;;;;;36.87;19.63;;;;;;;;;;5040237;28;20250;-84
2022/01/11 10:20:08;;;;;;;37.63;19.23;;;;;;;;;;5034154;28;20258;-84
2022/01/11 10:22:45;;;;;;;38.60;20.33;;;;;;;;;;5035499;28;20645;-84
2022/01/11 10:25:12;;;;;;;31.70;19.03;;;;;;;;;;5036712;28;20191;-84
2022/01/11 10:27:39;;;;;;;36.93;19.80;;;;;;;;;;5049935;28;20229;-84
2022/01/11 10:30:08;;;;;;;40.63;20.07;;;;;;;;;;5054275;28;20697;-85
2022/01/11 10:32:37;;;;;;;38.30;20.73;;;;;;;;;;5053173;28;20233;-85
2022/01/11 10:35:05;;;;;;;37.13;20.77;;;;;;;;;;5053425;28;20206;-85
2022/01/11 10:37:38;;;;;;;39.87;21.00;;;;;;;;;;5053366;28;20233;-84
2022/01/11 10:40:08;;;;;;;36.03;20.70;;;;;;;;;;5053190;28;20206;-85
2022/01/11 10:42:38;;;;;;;38.77;21.20;;;;;;;;;;5053286;28;20252;-85
2022/01/11 10:45:06;;;;;;;40.43;20.70;;;;;;;;;;5053475;28;20195;-85
2022/01/11 10:47:34;;;;;;;42.73;20.93;;;;;;;;;;5052840;28;20717;-85
2022/01/11 10:50:02;;;;;;;41.83;21.90;;;;;;;;;;5053874;28;20575;-83
2022/01/11 10:52:32;;;;;;;40.43;21.80;;;;;;;;;;5053207;28;20226;-83
2022/01/11 10:55:02;;;;;;;40.90;21.67;;;;;;;;;;5054289;28;20213;-84
2022/01/11 10:57:31;;;;;;;38.13;22.07;;;;;;;;;;5052530;28;20713;-85
2022/01/11 11:00:08;;;;;;;43.83;22.93;;;;;;;;;;5053032;28;20202;-84
2022/01/11 11:02:35;;;;;;;42.10;23.23;;;;;;;;;;5052715;28;20315;-84
2022/01/11 11:05:10;;;;;;;45.80;23.57;;;;;;;;;;5052939;28;20205;-85
2022/01/11 11:07:38;;;;;;;47.87;23.70;;;;;;;;;;5054059;28;20229;-85
2022/01/11 11:10:06;;;;;;;37.53;20.70;;;;;;;;;;5056379;28;20217;-80
2022/01/11 11:12:33;;;;;;;42.33;21.63;;;;;;;;;;5052648;28;20247;-85
2022/01/11 11:15:01;;;;;;;42.53;21.80;;;;;;;;;;5054176;28;20559;-84
2022/01/11 11:17:29;;;;;;;40.90;22.70;;;;;;;;;;5061462;28;20206;-85
2022/01/11 11:19:57;;;;;;;41.03;21.60;;;;;;;;;;5054289;28;20934;-85
2022/01/11 11:22:24;;;;;;;47.50;23.07;;;;;;;;;;5053156;28;20662;-85
2022/01/11 11:24:52;;;;;;;38.37;21.67;;;;;;;;;;5032886;28;20207;-85
2022/01/11 11:27:22;;;;;;;40.10;21.50;;;;;;;;;;5034066;28;20657;-85
2022/01/11 11:29:49;;;;;;;37.30;21.37;;;;;;;;;;5034439;28;20601;-84
2022/01/11 11:32:17;;;;;;;36.17;20.87;;;;;;;;;;5035871;28;20227;-85
2022/01/11 11:34:48;;;;;;;36.50;21.93;;;;;;;;;;5036056;28;20202;-85
2022/01/11 11:37:18;;;;;;;35.50;20.80;;;;;;;;;;5033407;28;20194;-83
2022/01/11 11:39:46;;;;;;;38.57;21.90;;;;;;;;;;5033771;28;20588;-84
2022/01/11 11:42:16;;;;;;;33.07;20.40;;;;;;;;;;5033376;28;20238;-84
2022/01/11 11:44:46;;;;;;;35.07;20.37;;;;;;;;;;5033038;28;20672;-84
2022/01/11 11:47:13;;;;;;;30.17;18.93;;;;;;;;;;5034766;28;20300;-85
2022/01/11 11:49:48;;;;;;;31.40;20.53;;;;;;;;;;5053709;28;20790;-82
2022/01/11 11:52:19;;;;;;;31.93;18.90;;;;;;;;;;5034790;28;20394;-84
2022/01/11 11:54:50;;;;;;;30.47;18.90;;;;;;;;;;5033269;28;20212;-84
2022/01/11 11:57:18;;;;;;;30.03;18.10;;;;;;;;;;5036290;28;20194;-84
2022/01/11 11:59:53;;;;;;;32.17;17.70;;;;;;;;;;5072231;28;20209;-84
2022/01/11 12:02:33;;;;;;;28.47;17.77;;;;;;;;;;5032219;28;20194;-84
2022/01/11 12:05:00;;;;;;;31.90;17.10;;;;;;;;;;5059784;28;20208;-84
2022/01/11 12:07:29;;;;;;;29.43;16.83;;;;;;;;;;5057294;28;20210;-84
2022/01/11 12:09:56;;;;;;;35.37;17.67;;;;;;;;;;5052472;28;20212;-84
2022/01/11 12:12:38;;;;;;;27.67;17.00;;;;;;;;;;5051518;28;20224;-84
2022/01/11 12:15:20;;;;;;;25.47;15.83;;;;;;;;;;5060532;28;20743;-84
2022/01/11 12:17:48;;;;;;;25.27;15.20;;;;;;;;;;5056816;28;20247;-84
2022/01/11 12:20:40;;;;;;;29.37;15.60;;;;;;;;;;5052717;28;20209;-84
2022/01/11 12:23:07;;;;;;;22.83;15.33;;;;;;;;;;5051956;28;20253;-84
2022/01/11 12:25:41;;;;;;;27.07;15.57;;;;;;;;;;5052823;28;20201;-84
2022/01/11 12:28:08;;;;;;;27.80;15.40;;;;;;;;;;5048294;28;20612;-84
2022/01/11 12:30:35;;;;;;;21.03;14.87;;;;;;;;;;5053363;28;20208;-83
2022/01/11 12:33:12;;;;;;;23.03;14.13;;;;;;;;;;5071845;28;20237;-83
2022/01/11 12:36:06;;;;;;;25.87;14.50;;;;;;;;;;5061243;28;20201;-81
2022/01/11 12:38:35;;;;;;;24.73;14.03;;;;;;;;;;5037205;28;20327;-81
2022/01/11 12:41:17;;;;;;;19.13;13.23;;;;;;;;;;5066054;28;20215;-82
2022/01/11 12:43:49;;;;;;;20.73;12.87;;;;;;;;;;5062509;28;20229;-82
2022/01/11 12:46:17;;;;;;;27.87;13.97;;;;;;;;;;5061779;28;20213;-83
2022/01/11 12:48:57;;;;;;;23.93;13.03;;;;;;;;;;5055394;28;20241;-83
2022/01/11 12:51:49;;;;;;;19.33;12.40;;;;;;;;;;5036257;28;20207;-84
2022/01/11 12:54:18;;;;;;;19.50;12.00;;;;;;;;;;5055590;28;20709;-83
2022/01/11 12:56:47;;;;;;;23.20;12.60;;;;;;;;;;5056550;28;20216;-83
2022/01/11 12:59:14;;;;;;;22.60;12.20;;;;;;;;;;5061783;28;20291;-83
2022/01/11 13:01:41;;;;;;;20.63;11.80;;;;;;;;;;5056911;28;20206;-83
2022/01/11 13:04:10;;;;;;;18.67;11.40;;;;;;;;;;5056356;28;20238;-83
2022/01/11 13:06:38;;;;;;;18.30;11.23;;;;;;;;;;5055847;28;20198;-83
2022/01/11 13:09:06;;;;;;;16.40;11.33;;;;;;;;;;5054639;28;20238;-83
2022/01/11 13:11:34;;;;;;;19.53;11.77;;;;;;;;;;5055328;28;20351;-83
2022/01/11 13:14:17;;;;;;;20.20;11.10;;;;;;;;;;5054676;28;20248;-83
2022/01/11 13:16:44;;;;;;;17.33;11.10;;;;;;;;;;5055881;28;20201;-83
2022/01/11 13:19:13;;;;;;;17.03;10.60;;;;;;;;;;5054259;28;20241;-83
2022/01/11 13:21:40;;;;;;;17.17;10.70;;;;;;;;;;5055253;28;20211;-83
2022/01/11 13:24:22;;;;;;;16.93;11.00;;;;;;;;;;5058200;28;20253;-83
2022/01/11 13:26:49;;;;;;;16.87;10.73;;;;;;;;;;5053958;28;20206;-84
2022/01/11 13:29:17;;;;;;;18.30;11.20;;;;;;;;;;5054220;28;20246;-83
2022/01/11 13:31:47;;;;;;;17.60;11.17;;;;;;;;;;5054984;28;20226;-83
2022/01/11 13:34:17;;;;;;;15.90;10.30;;;;;;;;;;5054200;28;20239;-83
2022/01/11 13:36:47;;;;;;;15.63;10.07;;;;;;;;;;5054972;28;20210;-83
2022/01/11 13:39:15;;;;;;;15.53;10.50;;;;;;;;;;5053072;28;20233;-83
2022/01/11 13:41:43;;;;;;;16.17;10.77;;;;;;;;;;5055254;28;20205;-83
2022/01/11 13:44:11;;;;;;;17.17;10.60;;;;;;;;;;5055348;28;20611;-83
2022/01/11 13:46:40;;;;;;;18.03;10.40;;;;;;;;;;5055414;28;20202;-83
2022/01/11 13:49:07;;;;;;;15.23;9.87;;;;;;;;;;5053300;28;20238;-83
2022/01/11 13:51:36;;;;;;;13.87;9.87;;;;;;;;;;5054733;28;20233;-83
2022/01/11 13:54:06;;;;;;;17.10;10.27;;;;;;;;;;5054776;28;20615;-83
2022/01/11 13:56:33;;;;;;;13.30;9.47;;;;;;;;;;5055228;28;20236;-83
2022/01/11 13:59:02;;;;;;;17.73;9.97;;;;;;;;;;5054947;28;20612;-83
2022/01/11 14:01:29;;;;;;;14.60;9.93;;;;;;;;;;5055072;28;20259;-84
2022/01/11 14:04:05;;;;;;;13.60;9.73;;;;;;;;;;5054089;28;20241;-84
2022/01/11 14:06:41;;;;;;;12.77;9.37;;;;;;;;;;5054650;28;20186;-83
2022/01/11 14:09:11;;;;;;;15.53;9.70;;;;;;;;;;5054039;28;20241;-83
2022/01/11 14:11:43;;;;;;;16.07;9.00;;;;;;;;;;5034697;28;20217;-83
2022/01/11 14:14:10;;;;;;;14.10;9.13;;;;;;;;;;5033944;28;20238;-83
2022/01/11 14:16:41;;;;;;;18.97;9.33;;;;;;;;;;5034980;28;20636;-83
2022/01/11 14:19:09;;;;;;;12.07;8.80;;;;;;;;;;5046881;28;20241;-84
2022/01/11 14:21:50;;;;;;;13.00;9.47;;;;;;;;;;5054593;28;20226;-84
2022/01/11 14:24:17;;;;;;;14.27;9.30;;;;;;;;;;5053750;28;20257;-83
2022/01/11 14:26:45;;;;;;;12.47;9.40;;;;;;;;;;5054211;28;20206;-83
2022/01/11 14:29:17;;;;;;;14.50;9.30;;;;;;;;;;5053685;28;20238;-84